sensor_id;sensor_type;location;lat;lon;timestamp;P1;durP1;ratioP1;P2;durP2;ratioP2
47381;SDS011;33128;51.580;5.170;2023-03-12T00:01:47;13.90;;;13.23;;
47381;SDS011;33128;51.580;5.170;2023-03-12T00:04:13;15.73;;;14.98;;
47381;SDS011;33128;51.580;5.170;2023-03-12T00:06:38;14.65;;;13.70;;
47381;SDS011;33128;51.580;5.170;2023-03-12T00:09:04;16.83;;;16.02;;
47381;SDS011;33128;51.580;5.170;2023-03-12T00:11:33;16.48;;;15.63;;
47381;SDS011;33128;51.580;5.170;2023-03-12T00:13:58;16.58;;;15.25;;
47381;SDS011;33128;51.580;5.170;2023-03-12T00:16:25;17.17;;;15.95;;
47381;SDS011;33128;51.580;5.170;2023-03-12T00:18:51;16.45;;;15.65;;
47381;SDS011;33128;51.580;5.170;2023-03-12T00:21:19;16.13;;;15.23;;
47381;SDS011;33128;51.580;5.170;2023-03-12T00:23:46;15.88;;;15.13;;
47381;SDS011;33128;51.580;5.170;2023-03-12T00:26:13;16.27;;;15.32;;
47381;SDS011;33128;51.580;5.170;2023-03-12T00:28:39;16.35;;;15.63;;
47381;SDS011;33128;51.580;5.170;2023-03-12T00:31:12;16.92;;;15.63;;
47381;SDS011;33128;51.580;5.170;2023-03-12T00:33:38;16.13;;;15.32;;
47381;SDS011;33128;51.580;5.170;2023-03-12T00:36:04;15.50;;;14.65;;
47381;SDS011;33128;51.580;5.170;2023-03-12T00:38:30;15.45;;;14.75;;
47381;SDS011;33128;51.580;5.170;2023-03-12T00:40:59;15.18;;;14.27;;
47381;SDS011;33128;51.580;5.170;2023-03-12T00:43:27;15.48;;;14.68;;
47381;SDS011;33128;51.580;5.170;2023-03-12T00:45:53;15.38;;;14.48;;
47381;SDS011;33128;51.580;5.170;2023-03-12T00:48:18;15.13;;;14.48;;
47381;SDS011;33128;51.580;5.170;2023-03-12T00:50:44;16.00;;;15.15;;
47381;SDS011;33128;51.580;5.170;2023-03-12T00:53:09;15.43;;;14.73;;
47381;SDS011;33128;51.580;5.170;2023-03-12T00:55:35;16.20;;;15.18;;
47381;SDS011;33128;51.580;5.170;2023-03-12T00:58:01;15.82;;;14.93;;
47381;SDS011;33128;51.580;5.170;2023-03-12T01:00:26;16.27;;;15.48;;
47381;SDS011;33128;51.580;5.170;2023-03-12T01:02:52;15.75;;;14.73;;
47381;SDS011;33128;51.580;5.170;2023-03-12T01:05:18;16.25;;;15.15;;
47381;SDS011;33128;51.580;5.170;2023-03-12T01:07:46;15.88;;;15.13;;
47381;SDS011;33128;51.580;5.170;2023-03-12T01:10:13;15.60;;;14.85;;
47381;SDS011;33128;51.580;5.170;2023-03-12T01:12:40;15.32;;;14.63;;
47381;SDS011;33128;51.580;5.170;2023-03-12T01:15:05;16.08;;;15.07;;
47381;SDS011;33128;51.580;5.170;2023-03-12T01:17:31;16.17;;;15.23;;
47381;SDS011;33128;51.580;5.170;2023-03-12T01:19:57;16.30;;;15.50;;
47381;SDS011;33128;51.580;5.170;2023-03-12T01:22:23;15.18;;;14.52;;
47381;SDS011;33128;51.580;5.170;2023-03-12T01:24:48;15.48;;;14.70;;
47381;SDS011;33128;51.580;5.170;2023-03-12T01:27:14;15.68;;;14.55;;
47381;SDS011;33128;51.580;5.170;2023-03-12T01:29:39;15.55;;;14.85;;
47381;SDS011;33128;51.580;5.170;2023-03-12T01:32:05;15.55;;;14.75;;
47381;SDS011;33128;51.580;5.170;2023-03-12T01:34:31;17.33;;;16.25;;
47381;SDS011;33128;51.580;5.170;2023-03-12T01:36:59;15.43;;;14.80;;
47381;SDS011;33128;51.580;5.170;2023-03-12T01:39:25;15.68;;;14.77;;
47381;SDS011;33128;51.580;5.170;2023-03-12T01:41:50;15.73;;;14.90;;
47381;SDS011;33128;51.580;5.170;2023-03-12T01:44:16;16.27;;;15.23;;
47381;SDS011;33128;51.580;5.170;2023-03-12T01:46:42;14.73;;;14.13;;
47381;SDS011;33128;51.580;5.170;2023-03-12T01:49:13;16.42;;;15.63;;
47381;SDS011;33128;51.580;5.170;2023-03-12T01:54:25;15.82;;;15.05;;
47381;SDS011;33128;51.580;5.170;2023-03-12T01:56:56;14.55;;;13.93;;
47381;SDS011;33128;51.580;5.170;2023-03-12T01:59:24;15.80;;;14.60;;
47381;SDS011;33128;51.580;5.170;2023-03-12T02:01:54;14.52;;;13.82;;
47381;SDS011;33128;51.580;5.170;2023-03-12T02:04:21;13.93;;;13.32;;
47381;SDS011;33128;51.580;5.170;2023-03-12T02:06:50;14.20;;;13.60;;
47381;SDS011;33128;51.580;5.170;2023-03-12T02:09:19;14.88;;;14.02;;
47381;SDS011;33128;51.580;5.170;2023-03-12T02:11:45;15.25;;;14.48;;
47381;SDS011;33128;51.580;5.170;2023-03-12T02:14:13;14.48;;;13.60;;
47381;SDS011;33128;51.580;5.170;2023-03-12T02:16:39;14.63;;;13.93;;
47381;SDS011;33128;51.580;5.170;2023-03-12T02:19:07;14.95;;;14.25;;
47381;SDS011;33128;51.580;5.170;2023-03-12T02:21:53;14.95;;;14.05;;
47381;SDS011;33128;51.580;5.170;2023-03-12T02:27:17;15.50;;;14.57;;
47381;SDS011;33128;51.580;5.170;2023-03-12T02:29:45;15.48;;;14.23;;
47381;SDS011;33128;51.580;5.170;2023-03-12T02:32:14;14.38;;;13.55;;
47381;SDS011;33128;51.580;5.170;2023-03-12T02:34:48;16.42;;;15.38;;
47381;SDS011;33128;51.580;5.170;2023-03-12T02:37:14;15.25;;;14.35;;
47381;SDS011;33128;51.580;5.170;2023-03-12T02:39:41;14.68;;;14.07;;
47381;SDS011;33128;51.580;5.170;2023-03-12T02:42:08;16.08;;;14.75;;
47381;SDS011;33128;51.580;5.170;2023-03-12T02:44:34;15.23;;;14.13;;
47381;SDS011;33128;51.580;5.170;2023-03-12T02:47:02;16.30;;;15.40;;
47381;SDS011;33128;51.580;5.170;2023-03-12T02:49:29;15.70;;;14.80;;
47381;SDS011;33128;51.580;5.170;2023-03-12T02:51:56;17.15;;;15.90;;
47381;SDS011;33128;51.580;5.170;2023-03-12T02:54:23;16.10;;;15.40;;
47381;SDS011;33128;51.580;5.170;2023-03-12T02:56:50;16.70;;;15.88;;
47381;SDS011;33128;51.580;5.170;2023-03-12T02:59:17;16.02;;;15.27;;
47381;SDS011;33128;51.580;5.170;2023-03-12T03:01:44;15.90;;;15.10;;
47381;SDS011;33128;51.580;5.170;2023-03-12T03:04:10;15.10;;;14.30;;
47381;SDS011;33128;51.580;5.170;2023-03-12T03:06:37;16.15;;;15.32;;
47381;SDS011;33128;51.580;5.170;2023-03-12T03:09:05;15.45;;;14.75;;
47381;SDS011;33128;51.580;5.170;2023-03-12T03:11:31;15.50;;;14.70;;
47381;SDS011;33128;51.580;5.170;2023-03-12T03:13:57;16.02;;;14.95;;
47381;SDS011;33128;51.580;5.170;2023-03-12T03:16:22;15.55;;;14.63;;
47381;SDS011;33128;51.580;5.170;2023-03-12T03:18:48;15.70;;;14.90;;
47381;SDS011;33128;51.580;5.170;2023-03-12T03:21:16;15.70;;;14.80;;
47381;SDS011;33128;51.580;5.170;2023-03-12T03:23:42;15.38;;;14.68;;
47381;SDS011;33128;51.580;5.170;2023-03-12T03:26:09;16.35;;;15.45;;
47381;SDS011;33128;51.580;5.170;2023-03-12T03:28:34;15.00;;;14.40;;
47381;SDS011;33128;51.580;5.170;2023-03-12T03:31:00;15.18;;;14.50;;
47381;SDS011;33128;51.580;5.170;2023-03-12T03:33:30;16.45;;;15.18;;
47381;SDS011;33128;51.580;5.170;2023-03-12T03:35:59;14.73;;;13.88;;
47381;SDS011;33128;51.580;5.170;2023-03-12T03:38:26;16.15;;;14.80;;
47381;SDS011;33128;51.580;5.170;2023-03-12T03:40:53;14.95;;;14.25;;
47381;SDS011;33128;51.580;5.170;2023-03-12T03:43:19;14.55;;;13.85;;
47381;SDS011;33128;51.580;5.170;2023-03-12T03:45:46;15.82;;;15.13;;
47381;SDS011;33128;51.580;5.170;2023-03-12T03:48:12;15.70;;;14.95;;
47381;SDS011;33128;51.580;5.170;2023-03-12T03:50:38;14.55;;;13.95;;
47381;SDS011;33128;51.580;5.170;2023-03-12T03:53:07;15.65;;;14.63;;
47381;SDS011;33128;51.580;5.170;2023-03-12T03:55:37;14.40;;;13.70;;
47381;SDS011;33128;51.580;5.170;2023-03-12T03:58:04;15.63;;;14.50;;
47381;SDS011;33128;51.580;5.170;2023-03-12T04:00:30;15.35;;;14.40;;
47381;SDS011;33128;51.580;5.170;2023-03-12T04:02:56;15.50;;;14.57;;
47381;SDS011;33128;51.580;5.170;2023-03-12T04:05:22;15.25;;;14.45;;
47381;SDS011;33128;51.580;5.170;2023-03-12T04:07:50;14.63;;;13.93;;
47381;SDS011;33128;51.580;5.170;2023-03-12T04:10:19;16.40;;;15.35;;
47381;SDS011;33128;51.580;5.170;2023-03-12T04:12:45;15.55;;;14.65;;
47381;SDS011;33128;51.580;5.170;2023-03-12T04:15:11;15.43;;;14.60;;
47381;SDS011;33128;51.580;5.170;2023-03-12T04:17:36;16.10;;;15.32;;
47381;SDS011;33128;51.580;5.170;2023-03-12T04:20:05;15.73;;;14.80;;
47381;SDS011;33128;51.580;5.170;2023-03-12T04:22:32;15.57;;;14.73;;
47381;SDS011;33128;51.580;5.170;2023-03-12T04:24:58;17.27;;;15.90;;
47381;SDS011;33128;51.580;5.170;2023-03-12T04:27:24;15.50;;;14.80;;
47381;SDS011;33128;51.580;5.170;2023-03-12T04:29:50;15.18;;;14.48;;
47381;SDS011;33128;51.580;5.170;2023-03-12T04:32:15;15.38;;;14.57;;
47381;SDS011;33128;51.580;5.170;2023-03-12T04:34:41;15.55;;;14.40;;
47381;SDS011;33128;51.580;5.170;2023-03-12T04:37:07;16.00;;;14.93;;
47381;SDS011;33128;51.580;5.170;2023-03-12T04:39:35;15.57;;;14.88;;
47381;SDS011;33128;51.580;5.170;2023-03-12T04:42:00;15.32;;;14.52;;
47381;SDS011;33128;51.580;5.170;2023-03-12T04:44:26;16.45;;;15.45;;
47381;SDS011;33128;51.580;5.170;2023-03-12T04:46:52;15.85;;;14.98;;
47381;SDS011;33128;51.580;5.170;2023-03-12T04:49:17;15.13;;;14.43;;
47381;SDS011;33128;51.580;5.170;2023-03-12T04:51:43;15.55;;;14.75;;
47381;SDS011;33128;51.580;5.170;2023-03-12T04:54:08;15.77;;;14.98;;
47381;SDS011;33128;51.580;5.170;2023-03-12T04:56:34;14.85;;;13.95;;
47381;SDS011;33128;51.580;5.170;2023-03-12T04:59:00;16.50;;;15.43;;
47381;SDS011;33128;51.580;5.170;2023-03-12T05:01:27;15.75;;;14.45;;
47381;SDS011;33128;51.580;5.170;2023-03-12T05:03:54;15.07;;;14.27;;
47381;SDS011;33128;51.580;5.170;2023-03-12T05:06:20;16.52;;;15.63;;
47381;SDS011;33128;51.580;5.170;2023-03-12T05:08:49;15.20;;;14.27;;
47381;SDS011;33128;51.580;5.170;2023-03-12T05:11:16;14.43;;;13.60;;
47381;SDS011;33128;51.580;5.170;2023-03-12T05:13:42;15.38;;;14.57;;
47381;SDS011;33128;51.580;5.170;2023-03-12T05:16:08;14.80;;;14.10;;
47381;SDS011;33128;51.580;5.170;2023-03-12T05:18:43;14.77;;;14.18;;
47381;SDS011;33128;51.580;5.170;2023-03-12T05:21:13;14.45;;;13.65;;
47381;SDS011;33128;51.580;5.170;2023-03-12T05:23:40;15.02;;;14.13;;
47381;SDS011;33128;51.580;5.170;2023-03-12T05:26:14;14.30;;;13.70;;
47381;SDS011;33128;51.580;5.170;2023-03-12T05:28:40;13.95;;;13.18;;
47381;SDS011;33128;51.580;5.170;2023-03-12T05:31:07;14.85;;;13.45;;
47381;SDS011;33128;51.580;5.170;2023-03-12T05:33:34;14.55;;;13.10;;
47381;SDS011;33128;51.580;5.170;2023-03-12T05:36:00;14.50;;;13.02;;
47381;SDS011;33128;51.580;5.170;2023-03-12T05:38:26;13.70;;;13.05;;
47381;SDS011;33128;51.580;5.170;2023-03-12T05:40:52;13.70;;;12.98;;
47381;SDS011;33128;51.580;5.170;2023-03-12T05:43:19;13.90;;;13.30;;
47381;SDS011;33128;51.580;5.170;2023-03-12T05:45:45;14.40;;;13.60;;
47381;SDS011;33128;51.580;5.170;2023-03-12T05:48:11;13.68;;;12.63;;
47381;SDS011;33128;51.580;5.170;2023-03-12T05:50:37;13.80;;;13.15;;
47381;SDS011;33128;51.580;5.170;2023-03-12T05:53:02;14.48;;;13.77;;
47381;SDS011;33128;51.580;5.170;2023-03-12T05:55:28;17.27;;;13.93;;
47381;SDS011;33128;51.580;5.170;2023-03-12T05:57:53;14.20;;;13.65;;
47381;SDS011;33128;51.580;5.170;2023-03-12T06:00:19;15.27;;;14.48;;
47381;SDS011;33128;51.580;5.170;2023-03-12T06:02:45;17.58;;;16.67;;
47381;SDS011;33128;51.580;5.170;2023-03-12T06:05:11;14.88;;;14.27;;
47381;SDS011;33128;51.580;5.170;2023-03-12T06:07:37;14.27;;;13.68;;
47381;SDS011;33128;51.580;5.170;2023-03-12T06:10:03;15.48;;;14.57;;
47381;SDS011;33128;51.580;5.170;2023-03-12T06:12:29;15.25;;;14.65;;
47381;SDS011;33128;51.580;5.170;2023-03-12T06:14:56;16.15;;;15.35;;
47381;SDS011;33128;51.580;5.170;2023-03-12T06:17:22;15.40;;;14.70;;
47381;SDS011;33128;51.580;5.170;2023-03-12T06:19:50;15.32;;;14.40;;
47381;SDS011;33128;51.580;5.170;2023-03-12T06:22:17;15.75;;;15.05;;
47381;SDS011;33128;51.580;5.170;2023-03-12T06:24:43;15.55;;;14.85;;
47381;SDS011;33128;51.580;5.170;2023-03-12T06:27:11;14.80;;;14.00;;
47381;SDS011;33128;51.580;5.170;2023-03-12T06:29:38;15.13;;;14.23;;
47381;SDS011;33128;51.580;5.170;2023-03-12T06:32:03;14.75;;;13.68;;
47381;SDS011;33128;51.580;5.170;2023-03-12T06:34:29;15.05;;;14.07;;
47381;SDS011;33128;51.580;5.170;2023-03-12T06:36:55;13.13;;;12.52;;
47381;SDS011;33128;51.580;5.170;2023-03-12T06:39:20;12.85;;;12.18;;
47381;SDS011;33128;51.580;5.170;2023-03-12T06:41:46;13.68;;;12.65;;
47381;SDS011;33128;51.580;5.170;2023-03-12T06:44:12;13.50;;;12.80;;
47381;SDS011;33128;51.580;5.170;2023-03-12T06:46:38;14.30;;;13.38;;
47381;SDS011;33128;51.580;5.170;2023-03-12T06:49:03;11.13;;;10.43;;
47381;SDS011;33128;51.580;5.170;2023-03-12T06:51:29;10.75;;;10.27;;
47381;SDS011;33128;51.580;5.170;2023-03-12T06:53:55;11.10;;;10.63;;
47381;SDS011;33128;51.580;5.170;2023-03-12T06:56:20;11.90;;;11.40;;
47381;SDS011;33128;51.580;5.170;2023-03-12T06:58:46;12.45;;;11.77;;
47381;SDS011;33128;51.580;5.170;2023-03-12T07:01:12;12.52;;;11.90;;
47381;SDS011;33128;51.580;5.170;2023-03-12T07:03:38;12.23;;;11.30;;
47381;SDS011;33128;51.580;5.170;2023-03-12T07:06:04;12.68;;;11.50;;
47381;SDS011;33128;51.580;5.170;2023-03-12T07:08:37;20.70;;;11.10;;
47381;SDS011;33128;51.580;5.170;2023-03-12T07:11:07;11.00;;;10.20;;
47381;SDS011;33128;51.580;5.170;2023-03-12T07:13:33;11.35;;;10.35;;
47381;SDS011;33128;51.580;5.170;2023-03-12T07:15:58;11.38;;;10.77;;
47381;SDS011;33128;51.580;5.170;2023-03-12T07:18:24;11.68;;;10.95;;
47381;SDS011;33128;51.580;5.170;2023-03-12T07:20:50;10.57;;;10.13;;
47381;SDS011;33128;51.580;5.170;2023-03-12T07:23:16;12.48;;;10.90;;
47381;SDS011;33128;51.580;5.170;2023-03-12T07:25:42;11.20;;;10.70;;
47381;SDS011;33128;51.580;5.170;2023-03-12T07:28:09;11.73;;;11.15;;
47381;SDS011;33128;51.580;5.170;2023-03-12T07:30:35;11.27;;;10.77;;
47381;SDS011;33128;51.580;5.170;2023-03-12T07:33:01;11.27;;;10.77;;
47381;SDS011;33128;51.580;5.170;2023-03-12T07:35:28;11.30;;;10.70;;
47381;SDS011;33128;51.580;5.170;2023-03-12T07:37:55;10.73;;;10.32;;
47381;SDS011;33128;51.580;5.170;2023-03-12T07:40:21;10.55;;;10.05;;
47381;SDS011;33128;51.580;5.170;2023-03-12T07:42:47;11.43;;;10.73;;
47381;SDS011;33128;51.580;5.170;2023-03-12T07:45:15;11.20;;;10.70;;
47381;SDS011;33128;51.580;5.170;2023-03-12T07:47:41;11.50;;;10.90;;
47381;SDS011;33128;51.580;5.170;2023-03-12T07:50:07;11.65;;;11.05;;
47381;SDS011;33128;51.580;5.170;2023-03-12T07:52:33;11.43;;;10.63;;
47381;SDS011;33128;51.580;5.170;2023-03-12T07:54:59;10.90;;;10.38;;
47381;SDS011;33128;51.580;5.170;2023-03-12T07:57:24;11.75;;;11.15;;
47381;SDS011;33128;51.580;5.170;2023-03-12T07:59:53;11.50;;;11.00;;
47381;SDS011;33128;51.580;5.170;2023-03-12T08:02:19;11.10;;;10.65;;
47381;SDS011;33128;51.580;5.170;2023-03-12T08:04:45;10.80;;;10.35;;
47381;SDS011;33128;51.580;5.170;2023-03-12T08:07:11;10.80;;;10.35;;
47381;SDS011;33128;51.580;5.170;2023-03-12T08:09:45;10.95;;;10.20;;
47381;SDS011;33128;51.580;5.170;2023-03-12T08:12:13;10.77;;;10.20;;
47381;SDS011;33128;51.580;5.170;2023-03-12T08:14:38;10.93;;;10.43;;
47381;SDS011;33128;51.580;5.170;2023-03-12T08:17:04;10.98;;;10.50;;
47381;SDS011;33128;51.580;5.170;2023-03-12T08:19:30;11.45;;;10.82;;
47381;SDS011;33128;51.580;5.170;2023-03-12T08:21:58;10.98;;;10.45;;
47381;SDS011;33128;51.580;5.170;2023-03-12T08:24:24;10.63;;;10.23;;
47381;SDS011;33128;51.580;5.170;2023-03-12T08:26:49;10.27;;;9.88;;
47381;SDS011;33128;51.580;5.170;2023-03-12T08:29:15;10.15;;;9.70;;
47381;SDS011;33128;51.580;5.170;2023-03-12T08:31:41;10.20;;;9.70;;
47381;SDS011;33128;51.580;5.170;2023-03-12T08:34:07;9.90;;;9.40;;
47381;SDS011;33128;51.580;5.170;2023-03-12T08:36:33;10.00;;;9.60;;
47381;SDS011;33128;51.580;5.170;2023-03-12T08:39:01;9.60;;;9.20;;
47381;SDS011;33128;51.580;5.170;2023-03-12T08:41:27;10.05;;;9.50;;
47381;SDS011;33128;51.580;5.170;2023-03-12T08:43:54;9.38;;;9.07;;
47381;SDS011;33128;51.580;5.170;2023-03-12T08:46:19;9.90;;;9.30;;
47381;SDS011;33128;51.580;5.170;2023-03-12T08:48:45;9.55;;;9.10;;
47381;SDS011;33128;51.580;5.170;2023-03-12T08:51:11;9.15;;;8.75;;
47381;SDS011;33128;51.580;5.170;2023-03-12T08:53:37;9.25;;;8.80;;
47381;SDS011;33128;51.580;5.170;2023-03-12T08:56:03;9.70;;;9.30;;
47381;SDS011;33128;51.580;5.170;2023-03-12T08:58:31;8.90;;;8.48;;
47381;SDS011;33128;51.580;5.170;2023-03-12T09:00:57;9.15;;;8.70;;
47381;SDS011;33128;51.580;5.170;2023-03-12T09:03:23;9.60;;;9.13;;
47381;SDS011;33128;51.580;5.170;2023-03-12T09:05:49;9.70;;;9.30;;
47381;SDS011;33128;51.580;5.170;2023-03-12T09:08:25;9.90;;;9.38;;
47381;SDS011;33128;51.580;5.170;2023-03-12T09:10:51;9.00;;;8.50;;
47381;SDS011;33128;51.580;5.170;2023-03-12T09:13:19;9.70;;;9.20;;
47381;SDS011;33128;51.580;5.170;2023-03-12T09:15:45;9.63;;;9.13;;
47381;SDS011;33128;51.580;5.170;2023-03-12T09:18:10;9.48;;;8.98;;
47381;SDS011;33128;51.580;5.170;2023-03-12T09:20:36;9.50;;;9.07;;
47381;SDS011;33128;51.580;5.170;2023-03-12T09:23:01;9.75;;;9.15;;
47381;SDS011;33128;51.580;5.170;2023-03-12T09:25:27;9.30;;;8.70;;
47381;SDS011;33128;51.580;5.170;2023-03-12T09:27:52;10.18;;;9.50;;
47381;SDS011;33128;51.580;5.170;2023-03-12T09:30:19;9.55;;;9.15;;
47381;SDS011;33128;51.580;5.170;2023-03-12T09:32:45;10.18;;;9.77;;
47381;SDS011;33128;51.580;5.170;2023-03-12T09:35:15;10.52;;;9.90;;
47381;SDS011;33128;51.580;5.170;2023-03-12T09:37:41;10.23;;;9.63;;
47381;SDS011;33128;51.580;5.170;2023-03-12T09:40:07;9.30;;;8.90;;
47381;SDS011;33128;51.580;5.170;2023-03-12T09:42:49;9.93;;;9.43;;
47381;SDS011;33128;51.580;5.170;2023-03-12T09:45:22;10.23;;;9.73;;
47381;SDS011;33128;51.580;5.170;2023-03-12T09:47:54;10.20;;;9.70;;
47381;SDS011;33128;51.580;5.170;2023-03-12T09:50:34;9.25;;;8.77;;
47381;SDS011;33128;51.580;5.170;2023-03-12T09:55:52;8.90;;;8.40;;
47381;SDS011;33128;51.580;5.170;2023-03-12T09:58:24;10.18;;;9.50;;
47381;SDS011;33128;51.580;5.170;2023-03-12T10:06:37;9.98;;;9.27;;
47381;SDS011;33128;51.580;5.170;2023-03-12T10:09:18;11.40;;;10.63;;
47381;SDS011;33128;51.580;5.170;2023-03-12T10:25:52;8.80;;;8.40;;
47381;SDS011;33128;51.580;5.170;2023-03-12T10:28:42;9.25;;;8.65;;
47381;SDS011;33128;51.580;5.170;2023-03-12T10:31:14;9.25;;;8.70;;
47381;SDS011;33128;51.580;5.170;2023-03-12T10:33:53;9.55;;;8.95;;
47381;SDS011;33128;51.580;5.170;2023-03-12T10:36:43;9.60;;;8.80;;
47381;SDS011;33128;51.580;5.170;2023-03-12T10:39:12;9.30;;;8.60;;
47381;SDS011;33128;51.580;5.170;2023-03-12T10:41:43;9.30;;;8.90;;
47381;SDS011;33128;51.580;5.170;2023-03-12T10:44:13;9.68;;;9.05;;
47381;SDS011;33128;51.580;5.170;2023-03-12T10:49:33;8.73;;;8.32;;
47381;SDS011;33128;51.580;5.170;2023-03-12T10:54:32;9.68;;;9.18;;
47381;SDS011;33128;51.580;5.170;2023-03-12T10:57:04;9.07;;;8.50;;
47381;SDS011;33128;51.580;5.170;2023-03-12T10:59:33;9.23;;;8.73;;
47381;SDS011;33128;51.580;5.170;2023-03-12T11:02:01;10.32;;;9.50;;
47381;SDS011;33128;51.580;5.170;2023-03-12T11:04:50;10.30;;;9.55;;
47381;SDS011;33128;51.580;5.170;2023-03-12T11:07:18;9.55;;;9.15;;
47381;SDS011;33128;51.580;5.170;2023-03-12T11:10:02;9.60;;;8.90;;
47381;SDS011;33128;51.580;5.170;2023-03-12T11:12:29;11.15;;;10.20;;
47381;SDS011;33128;51.580;5.170;2023-03-12T11:14:56;10.77;;;9.95;;
47381;SDS011;33128;51.580;5.170;2023-03-12T11:17:23;10.00;;;9.23;;
47381;SDS011;33128;51.580;5.170;2023-03-12T11:19:50;11.20;;;10.40;;
47381;SDS011;33128;51.580;5.170;2023-03-12T11:22:26;11.82;;;10.95;;
47381;SDS011;33128;51.580;5.170;2023-03-12T11:24:55;11.98;;;11.15;;
47381;SDS011;33128;51.580;5.170;2023-03-12T11:30:22;10.95;;;9.77;;
47381;SDS011;33128;51.580;5.170;2023-03-12T11:32:53;10.27;;;9.68;;
47381;SDS011;33128;51.580;5.170;2023-03-12T11:38:26;11.25;;;10.50;;
47381;SDS011;33128;51.580;5.170;2023-03-12T11:44:12;11.18;;;10.48;;
47381;SDS011;33128;51.580;5.170;2023-03-12T11:52:32;11.57;;;10.60;;
47381;SDS011;33128;51.580;5.170;2023-03-12T12:01:09;10.40;;;9.80;;
47381;SDS011;33128;51.580;5.170;2023-03-12T12:20:13;10.05;;;9.45;;
47381;SDS011;33128;51.580;5.170;2023-03-12T12:23:06;9.10;;;8.50;;
47381;SDS011;33128;51.580;5.170;2023-03-12T12:28:29;10.15;;;9.63;;
47381;SDS011;33128;51.580;5.170;2023-03-12T12:37:34;9.65;;;8.85;;
47381;SDS011;33128;51.580;5.170;2023-03-12T12:39:50;9.52;;;8.73;;
47381;SDS011;33128;51.580;5.170;2023-03-12T12:45:22;9.98;;;9.27;;
47381;SDS011;33128;51.580;5.170;2023-03-12T12:47:54;10.60;;;9.05;;
47381;SDS011;33128;51.580;5.170;2023-03-12T12:50:25;10.60;;;10.00;;
47381;SDS011;33128;51.580;5.170;2023-03-12T12:56:10;14.68;;;9.70;;
47381;SDS011;33128;51.580;5.170;2023-03-12T12:59:13;11.18;;;10.15;;
47381;SDS011;33128;51.580;5.170;2023-03-12T13:01:47;11.70;;;10.77;;
47381;SDS011;33128;51.580;5.170;2023-03-12T13:04:25;11.25;;;10.50;;
47381;SDS011;33128;51.580;5.170;2023-03-12T13:07:01;11.07;;;10.38;;
47381;SDS011;33128;51.580;5.170;2023-03-12T13:09:43;10.40;;;9.70;;
47381;SDS011;33128;51.580;5.170;2023-03-12T13:14:40;10.20;;;9.50;;
47381;SDS011;33128;51.580;5.170;2023-03-12T13:17:22;14.25;;;10.18;;
47381;SDS011;33128;51.580;5.170;2023-03-12T13:19:50;11.05;;;10.35;;
47381;SDS011;33128;51.580;5.170;2023-03-12T13:22:26;11.00;;;10.15;;
47381;SDS011;33128;51.580;5.170;2023-03-12T13:25:11;10.07;;;9.55;;
47381;SDS011;33128;51.580;5.170;2023-03-12T13:27:43;11.25;;;10.15;;
47381;SDS011;33128;51.580;5.170;2023-03-12T13:45:30;11.52;;;9.90;;
47381;SDS011;33128;51.580;5.170;2023-03-12T13:47:59;10.80;;;9.75;;
47381;SDS011;33128;51.580;5.170;2023-03-12T13:50:32;16.25;;;10.25;;
47381;SDS011;33128;51.580;5.170;2023-03-12T13:53:05;11.67;;;10.60;;
47381;SDS011;33128;51.580;5.170;2023-03-12T13:55:33;13.13;;;11.90;;
47381;SDS011;33128;51.580;5.170;2023-03-12T14:00:30;10.68;;;10.05;;
47381;SDS011;33128;51.580;5.170;2023-03-12T14:05:58;10.52;;;9.68;;
47381;SDS011;33128;51.580;5.170;2023-03-12T14:11:35;11.38;;;10.45;;
47381;SDS011;33128;51.580;5.170;2023-03-12T14:14:11;11.18;;;10.32;;
47381;SDS011;33128;51.580;5.170;2023-03-12T14:17:02;11.00;;;10.27;;
47381;SDS011;33128;51.580;5.170;2023-03-12T14:19:30;12.18;;;11.10;;
47381;SDS011;33128;51.580;5.170;2023-03-12T14:21:59;12.10;;;11.50;;
47381;SDS011;33128;51.580;5.170;2023-03-12T14:24:32;11.68;;;10.73;;
47381;SDS011;33128;51.580;5.170;2023-03-12T14:27:03;11.02;;;10.40;;
47381;SDS011;33128;51.580;5.170;2023-03-12T14:29:41;10.75;;;9.80;;
47381;SDS011;33128;51.580;5.170;2023-03-12T14:32:28;12.20;;;11.23;;
47381;SDS011;33128;51.580;5.170;2023-03-12T14:37:46;11.10;;;10.13;;
47381;SDS011;33128;51.580;5.170;2023-03-12T14:42:53;10.52;;;9.70;;
47381;SDS011;33128;51.580;5.170;2023-03-12T14:45:24;11.18;;;10.13;;
47381;SDS011;33128;51.580;5.170;2023-03-12T14:47:55;11.63;;;10.93;;
47381;SDS011;33128;51.580;5.170;2023-03-12T14:50:26;11.07;;;10.23;;
47381;SDS011;33128;51.580;5.170;2023-03-12T14:55:41;11.93;;;10.50;;
47381;SDS011;33128;51.580;5.170;2023-03-12T14:58:14;10.02;;;9.40;;
47381;SDS011;33128;51.580;5.170;2023-03-12T15:00:42;10.55;;;9.55;;
47381;SDS011;33128;51.580;5.170;2023-03-12T15:03:22;10.75;;;9.88;;
47381;SDS011;33128;51.580;5.170;2023-03-12T15:05:48;10.63;;;9.60;;
47381;SDS011;33128;51.580;5.170;2023-03-12T15:08:16;10.60;;;9.55;;
47381;SDS011;33128;51.580;5.170;2023-03-12T15:10:56;10.15;;;9.32;;
47381;SDS011;33128;51.580;5.170;2023-03-12T15:13:23;10.50;;;9.70;;
47381;SDS011;33128;51.580;5.170;2023-03-12T15:15:51;10.38;;;9.38;;
47381;SDS011;33128;51.580;5.170;2023-03-12T15:18:23;10.13;;;9.20;;
47381;SDS011;33128;51.580;5.170;2023-03-12T15:20:52;9.90;;;9.20;;
47381;SDS011;33128;51.580;5.170;2023-03-12T15:23:20;9.98;;;8.95;;
47381;SDS011;33128;51.580;5.170;2023-03-12T15:25:48;9.57;;;8.82;;
47381;SDS011;33128;51.580;5.170;2023-03-12T15:28:37;9.45;;;8.60;;
47381;SDS011;33128;51.580;5.170;2023-03-12T15:31:13;9.98;;;9.18;;
47381;SDS011;33128;51.580;5.170;2023-03-12T15:33:41;8.80;;;8.20;;
47381;SDS011;33128;51.580;5.170;2023-03-12T15:36:19;9.82;;;8.93;;
47381;SDS011;33128;51.580;5.170;2023-03-12T15:38:50;10.10;;;9.20;;
47381;SDS011;33128;51.580;5.170;2023-03-12T15:42:00;11.05;;;10.25;;
47381;SDS011;33128;51.580;5.170;2023-03-12T15:44:19;10.50;;;9.60;;
47381;SDS011;33128;51.580;5.170;2023-03-12T15:46:48;10.70;;;9.60;;
47381;SDS011;33128;51.580;5.170;2023-03-12T15:49:20;10.13;;;9.25;;
47381;SDS011;33128;51.580;5.170;2023-03-12T15:52:03;10.40;;;9.50;;
47381;SDS011;33128;51.580;5.170;2023-03-12T15:54:31;9.45;;;8.70;;
47381;SDS011;33128;51.580;5.170;2023-03-12T16:00:06;9.45;;;8.75;;
47381;SDS011;33128;51.580;5.170;2023-03-12T16:05:16;10.05;;;9.18;;
47381;SDS011;33128;51.580;5.170;2023-03-12T16:07:43;9.50;;;8.52;;
47381;SDS011;33128;51.580;5.170;2023-03-12T16:10:10;9.20;;;8.40;;
47381;SDS011;33128;51.580;5.170;2023-03-12T16:12:39;10.20;;;9.18;;
47381;SDS011;33128;51.580;5.170;2023-03-12T16:15:12;9.35;;;8.55;;
47381;SDS011;33128;51.580;5.170;2023-03-12T16:17:39;10.13;;;9.23;;
47381;SDS011;33128;51.580;5.170;2023-03-12T16:20:07;9.80;;;8.80;;
47381;SDS011;33128;51.580;5.170;2023-03-12T16:22:35;9.15;;;8.65;;
47381;SDS011;33128;51.580;5.170;2023-03-12T16:25:01;9.98;;;9.10;;
47381;SDS011;33128;51.580;5.170;2023-03-12T16:27:26;9.65;;;8.80;;
47381;SDS011;33128;51.580;5.170;2023-03-12T16:29:52;9.10;;;8.20;;
47381;SDS011;33128;51.580;5.170;2023-03-12T16:32:17;9.32;;;8.68;;
47381;SDS011;33128;51.580;5.170;2023-03-12T16:34:43;9.70;;;8.80;;
47381;SDS011;33128;51.580;5.170;2023-03-12T16:37:09;13.60;;;9.02;;
47381;SDS011;33128;51.580;5.170;2023-03-12T16:39:36;8.90;;;8.05;;
47381;SDS011;33128;51.580;5.170;2023-03-12T16:42:02;9.27;;;8.70;;
47381;SDS011;33128;51.580;5.170;2023-03-12T16:44:37;10.43;;;9.40;;